Bookmark and Share
Track history (hours):
 

Menalon

Last reported at 2014-Apr-17 15:33 UTC. Time now 2014-Apr-17 15:37 UTC.
Position N 37°52' E 023°32'.

Length 83 m; draft 4 m.

Type: Ship (hazmat cat C). MMSI: 239741000.

NotesDate/timePositionNaut miles runAvg speedWind from/ knotsBaromVisibWave heightAir tempDewpointWater temp
2014-Apr-17 15:33N 37°52' E 023°32'0 0.0
2014-Apr-17 14:33N 37°52' E 023°31'0 0.0
2014-Apr-17 13:33N 37°52' E 023°31'0 0.3
2014-Apr-17 12:33N 37°52' E 023°32'6 5.7
2014-Apr-17 11:32N 37°57' E 023°35'0 0.0
2014-Apr-17 10:33N 37°57' E 023°35'0 0.0
2014-Apr-17 09:33N 37°57' E 023°35'0 0.0
2014-Apr-17 08:33N 37°57' E 023°35'0 0.0
2014-Apr-17 07:33N 37°57' E 023°35'0 0.0
2014-Apr-17 06:33N 37°57' E 023°35'0 0.1
2014-Apr-17 05:33N 37°57' E 023°34'0 0.0
2014-Apr-17 04:33N 37°57' E 023°35'0 0.0
2014-Apr-17 03:33N 37°57' E 023°35'0 0.0
2014-Apr-17 02:33N 37°57' E 023°35'0 0.0
2014-Apr-17 01:33N 37°57' E 023°35'0 0.0
2014-Apr-17 00:33N 37°57' E 023°35'0 0.0
2014-Apr-16 23:33N 37°57' E 023°35'0 0.0
2014-Apr-16 22:33N 37°57' E 023°35'0 0.0
2014-Apr-16 21:33N 37°57' E 023°35'0 0.0
2014-Apr-16 20:33N 37°57' E 023°35'0 0.0
2014-Apr-16 19:33N 37°57' E 023°35'0 0.3
2014-Apr-16 18:33N 37°57' E 023°35'6 5.7
2014-Apr-16 17:33N 37°52' E 023°32'0 0.1
2014-Apr-16 16:33N 37°52' E 023°32'0 0.1
2014-Apr-16 15:33N 37°52' E 023°32'0 0.1
2014-Apr-16 14:33N 37°52' E 023°32'6 6.0
2014-Apr-16 13:33N 37°58' E 023°34'0 0.0
2014-Apr-16 12:33N 37°58' E 023°34'0 0.0
2014-Apr-16 11:33N 37°58' E 023°34'0 0.0
2014-Apr-16 10:33N 37°58' E 023°34'0 0.0
2014-Apr-16 09:33N 37°58' E 023°34'0 0.0
2014-Apr-16 08:33N 37°57' E 023°34'0 0.0
2014-Apr-16 07:33N 37°57' E 023°35'0 0.1
2014-Apr-16 06:33N 37°57' E 023°35'0 0.1
2014-Apr-16 05:33N 37°57' E 023°34'0 0.1
2014-Apr-16 04:33N 37°57' E 023°34'0 0.0
2014-Apr-16 03:33N 37°57' E 023°34'0 0.1
2014-Apr-16 02:33N 37°57' E 023°34'0 0.0
2014-Apr-16 01:33N 37°57' E 023°35'0 0.0
2014-Apr-16 00:33N 37°57' E 023°35'0 0.0
2014-Apr-15 23:33N 37°57' E 023°35'0 0.0
2014-Apr-15 22:33N 37°57' E 023°35'0 0.0
2014-Apr-15 21:33N 37°57' E 023°35'0 0.0
2014-Apr-15 20:33N 37°57' E 023°35'0 0.0
2014-Apr-15 19:33N 37°57' E 023°35'0 0.1
2014-Apr-15 18:33N 37°57' E 023°34'0 0.0
2014-Apr-15 17:33N 37°57' E 023°34'0 0.0
2014-Apr-15 16:33N 37°57' E 023°34'0 0.0
2014-Apr-15 15:33N 37°57' E 023°34'0 0.0
2014-Apr-15 14:33N 37°57' E 023°34'0 0.0
2014-Apr-15 12:34N 37°57' E 023°34'0 0.0
2014-Apr-15 11:34N 37°57' E 023°34'0 0.1
2014-Apr-15 10:34N 37°57' E 023°34'5 4.5
2014-Apr-15 09:31N 37°53' E 023°32'0 0.0
2014-Apr-15 08:33N 37°53' E 023°32'0 0.0
2014-Apr-15 07:33N 37°53' E 023°32'5 4.9
2014-Apr-15 06:33N 37°57' E 023°36'1 0.6
2014-Apr-15 05:34N 37°57' E 023°36'1 0.6
2014-Apr-15 03:33N 37°57' E 023°35'0 0.0
2014-Apr-15 02:34N 37°57' E 023°35'0 0.0
2014-Apr-15 01:33N 37°57' E 023°35'0 0.0
2014-Apr-15 00:34N 37°57' E 023°35'0 0.0
2014-Apr-14 23:34N 37°57' E 023°35'0 0.0
2014-Apr-14 22:33N 37°57' E 023°35'0 0.0
2014-Apr-14 21:34N 37°57' E 023°35'0 0.1
2014-Apr-14 20:33N 37°57' E 023°35'0 0.0
2014-Apr-14 19:33N 37°57' E 023°35'0 0.0
2014-Apr-14 18:31N 37°57' E 023°35'0 0.0
2014-Apr-14 17:33N 37°57' E 023°35'0 0.0
2014-Apr-14 16:33N 37°57' E 023°35'0 0.0
2014-Apr-14 15:33N 37°57' E 023°35'0 0.0
2014-Apr-14 14:33N 37°57' E 023°35'0 0.0
2014-Apr-14 13:33N 37°57' E 023°35'0 0.0
2014-Apr-14 11:33N 37°57' E 023°35'0 0.0
2014-Apr-14 10:33N 37°57' E 023°35'0 0.0
2014-Apr-14 09:33N 37°57' E 023°35'0 0.0
2014-Apr-14 08:33N 37°57' E 023°35'0 0.1
2014-Apr-14 07:33N 37°57' E 023°35'0 0.0
2014-Apr-14 06:32N 37°57' E 023°35'0 0.0
2014-Apr-14 05:33N 37°57' E 023°35'0 0.0
2014-Apr-13 22:33N 37°57' E 023°35'0 0.0
2014-Apr-13 21:33N 37°57' E 023°35'0 0.0
2014-Apr-13 20:33N 37°57' E 023°35'0 0.0
2014-Apr-13 19:33N 37°57' E 023°35'0 0.0
2014-Apr-13 18:33N 37°57' E 023°35'4 4.2
2014-Apr-13 17:33N 37°53' E 023°33'0 0.0
2014-Apr-13 16:33N 37°53' E 023°33'0 0.0
2014-Apr-13 15:33N 37°53' E 023°33'2 1.6
2014-Apr-13 14:32N 37°52' E 023°32'0 0.0
2014-Apr-13 13:31N 37°52' E 023°32'0 0.0
2014-Apr-13 08:18N 37°52' E 023°32'0 0.1
2014-Apr-13 07:33N 37°52' E 023°32'5 4.9
2014-Apr-13 06:33N 37°52' E 023°26'1 0.0
2014-Apr-11 22:23N 37°52' E 023°28'8 9.3
2014-Apr-11 21:33N 37°57' E 023°35'0 0.2
2014-Apr-11 20:33N 37°57' E 023°35'0 0.0
2014-Apr-11 19:33N 37°57' E 023°35'0 0.0
2014-Apr-11 18:33N 37°57' E 023°35'0 0.0
2014-Apr-11 17:33N 37°57' E 023°35'0 0.0
2014-Apr-11 16:33N 37°57' E 023°35'0 0.1
2014-Apr-11 15:33N 37°57' E 023°35'0 0.1
2014-Apr-11 14:33N 37°57' E 023°35'0 0.0
2014-Apr-11 13:33N 37°57' E 023°35'0 0.0
2014-Apr-11 12:33N 37°57' E 023°35'0 0.0
2014-Apr-11 11:33N 37°57' E 023°35'0 0.0
2014-Apr-11 10:33N 37°57' E 023°35'0 0.0
2014-Apr-11 09:33N 37°57' E 023°35'0 0.0
2014-Apr-11 08:33N 37°57' E 023°35'0 0.0
2014-Apr-11 07:33N 37°57' E 023°35'0 0.0
2014-Apr-11 06:33N 37°57' E 023°35'0 0.0
2014-Apr-11 05:33N 37°57' E 023°35'0 0.0
2014-Apr-11 04:33N 37°57' E 023°35'0 0.0
2014-Apr-11 03:33N 37°57' E 023°35'0 0.0
2014-Apr-11 02:33N 37°57' E 023°35'0 0.0
2014-Apr-11 01:33N 37°57' E 023°35'0 0.0
2014-Apr-11 00:32N 37°57' E 023°35'0 0.0
2014-Apr-10 23:33N 37°57' E 023°35'0 0.0
2014-Apr-10 22:33N 37°57' E 023°35'0 0.0
2014-Apr-10 21:33N 37°57' E 023°35'0 0.0
2014-Apr-10 20:33N 37°57' E 023°35'0 0.0
2014-Apr-10 19:33N 37°57' E 023°35'0 0.0
2014-Apr-10 18:29N 37°57' E 023°35'1 0.6
2014-Apr-10 17:33N 37°57' E 023°35'5 1.4
2014-Apr-10 13:33N 37°52' E 023°32'4 3.4
2014-Apr-10 12:30N 37°55' E 023°33'0 0.1
2014-Apr-10 11:22N 37°55' E 023°34'0 0.2
2014-Apr-10 10:31N 37°55' E 023°33'1 1.0
2014-Apr-10 09:33N 37°55' E 023°35'3 2.5
2014-Apr-10 08:27N 37°58' E 023°36'0 0.0
2014-Apr-10 07:32N 37°58' E 023°36'0 0.0
2014-Apr-10 06:33N 37°58' E 023°36'1 1.2
2014-Apr-10 05:33N 37°57' E 023°35'0 0.0
2014-Apr-10 04:33N 37°57' E 023°35'0 0.0
2014-Apr-10 03:33N 37°57' E 023°35'0 0.0
2014-Apr-10 02:32N 37°57' E 023°35'0 0.0
2014-Apr-10 01:33N 37°57' E 023°35'0 0.0
2014-Apr-10 00:33N 37°57' E 023°35'0 0.0
2014-Apr-09 23:33N 37°57' E 023°35'0 0.0
2014-Apr-09 22:33N 37°57' E 023°35'0 0.0
2014-Apr-09 21:33N 37°57' E 023°35'0 0.1
2014-Apr-09 20:33N 37°57' E 023°35'0 0.1
2014-Apr-09 19:33N 37°57' E 023°35'0 0.0
2014-Apr-09 18:33N 37°57' E 023°35'0 0.0
2014-Apr-09 17:33N 37°57' E 023°35'0 0.0
2014-Apr-09 16:33N 37°57' E 023°35'0 0.0
2014-Apr-09 15:33N 37°57' E 023°35'0 0.0
2014-Apr-09 14:33N 37°57' E 023°35'0 0.0
2014-Apr-09 13:32N 37°57' E 023°35'0 0.0
2014-Apr-09 12:33N 37°57' E 023°35'0 0.0
2014-Apr-09 11:33N 37°57' E 023°35'0 0.0
2014-Apr-09 10:33N 37°57' E 023°35'0 0.0
2014-Apr-09 09:32N 37°57' E 023°35'0 0.0
2014-Apr-09 08:32N 37°57' E 023°35'0 0.0
2014-Apr-09 07:33N 37°57' E 023°35'0 0.0
2014-Apr-09 06:33N 37°57' E 023°35'0 0.0
2014-Apr-09 05:33N 37°57' E 023°35'0 0.0
2014-Apr-09 04:33N 37°57' E 023°35'0 0.0
2014-Apr-09 03:33N 37°57' E 023°35'0 0.0
2014-Apr-09 02:32N 37°57' E 023°35'0 0.0
2014-Apr-09 01:33N 37°57' E 023°35'0 0.0
2014-Apr-09 00:33N 37°57' E 023°35'0 0.0
2014-Apr-08 23:33N 37°57' E 023°35'0 0.0
2014-Apr-08 22:33N 37°57' E 023°35'0 0.0
2014-Apr-08 21:33N 37°57' E 023°35'0 0.0
2014-Apr-08 20:33N 37°57' E 023°35'0 0.0
2014-Apr-08 19:33N 37°57' E 023°35'0 0.0
2014-Apr-08 18:33N 37°57' E 023°35'0 0.0
2014-Apr-08 17:33N 37°57' E 023°35'0 0.0
2014-Apr-08 16:33N 37°57' E 023°35'0 0.0
2014-Apr-08 15:33N 37°57' E 023°35'0 0.0
2014-Apr-08 14:33N 37°57' E 023°35'0 0.0
2014-Apr-08 13:33N 37°57' E 023°35'0 0.0
2014-Apr-08 12:33N 37°57' E 023°35'0 0.0
2014-Apr-08 11:33N 37°57' E 023°35'0 0.0
2014-Apr-08 10:33N 37°57' E 023°35'0 0.0
2014-Apr-08 09:33N 37°57' E 023°35'0 0.1
2014-Apr-08 08:33N 37°57' E 023°35'0 0.1
2014-Apr-08 07:33N 37°57' E 023°35'0 0.0
2014-Apr-08 06:33N 37°57' E 023°35'0 0.1
2014-Apr-08 05:33N 37°57' E 023°35'5 5.2
2014-Apr-08 04:32N 37°53' E 023°31'0 0.0
2014-Apr-08 03:31N 37°53' E 023°31'0 0.2
2014-Apr-08 02:28N 37°53' E 023°31'  

Dump ship's entire track history

sailing weather and tide predictions

Menalon — SXCH — position and weather